createdAt,value
2022-09-21T00:01:43.983Z,100137.81
2022-09-21T00:04:12.320Z,100135.41
2022-09-21T00:06:40.858Z,100135.53
2022-09-21T00:09:09.718Z,100132.13
2022-09-21T00:11:38.882Z,100135.63
2022-09-21T00:14:11.324Z,100139.16
2022-09-21T00:16:42.319Z,100134.84
2022-09-21T00:19:11.123Z,100136.75
2022-09-21T00:21:41.088Z,100134.31
2022-09-21T00:24:09.914Z,100134.44
2022-09-21T00:26:38.621Z,100134.56
2022-09-21T00:29:08.672Z,100139.78
2022-09-21T00:31:37.376Z,100138.09
2022-09-21T00:34:07.995Z,100147.59
2022-09-21T00:36:36.968Z,100140.66
2022-09-21T00:39:06.280Z,100141.50
2022-09-21T00:41:35.727Z,100134.63
2022-09-21T00:44:26.407Z,100133.75
2022-09-21T00:46:58.726Z,100138.09
2022-09-21T00:49:29.282Z,100143.34
2022-09-21T00:52:02.251Z,100142.47
2022-09-21T00:54:33.947Z,100139.91
2022-09-21T00:57:04.316Z,100142.41
2022-09-21T00:59:36.939Z,100147.59
2022-09-21T01:02:06.206Z,100143.09
2022-09-21T01:04:36.602Z,100143.84
2022-09-21T01:07:09.013Z,100144.66
2022-09-21T01:09:38.113Z,100140.28
2022-09-21T01:12:24.125Z,100143.56
2022-09-21T01:15:12.632Z,100144.31
2022-09-21T01:17:52.002Z,100141.63
2022-09-21T01:20:59.776Z,100144.97
2022-09-21T01:24:10.052Z,100143.88
2022-09-21T01:27:01.873Z,100147.25
2022-09-21T01:29:38.631Z,100148.91
2022-09-21T01:32:13.246Z,100147.97
2022-09-21T01:34:49.786Z,100142.69
2022-09-21T01:37:24.046Z,100153.06
2022-09-21T01:40:01.255Z,100145.13
2022-09-21T01:42:31.974Z,100142.50
2022-09-21T01:45:07.705Z,100142.50
2022-09-21T01:47:38.946Z,100138.91
2022-09-21T01:50:11.741Z,100139.69
2022-09-21T01:52:46.038Z,100144.88
2022-09-21T01:55:21.108Z,100138.69
2022-09-21T01:57:57.161Z,100153.38
2022-09-21T02:00:29.856Z,100148.09
2022-09-21T02:03:05.824Z,100154.25
2022-09-21T02:05:34.942Z,100159.44
2022-09-21T02:08:04.005Z,100158.53
2022-09-21T02:10:36.296Z,100160.25
2022-09-21T02:13:08.004Z,100163.63
2022-09-21T02:15:53.707Z,100158.53
2022-09-21T02:18:35.949Z,100154.06
2022-09-21T02:21:11.826Z,100152.44
2022-09-21T02:23:48.206Z,100163.63
2022-09-21T02:26:25.271Z,100164.50
2022-09-21T02:29:03.153Z,100164.38
2022-09-21T02:31:40.367Z,100174.88
2022-09-21T02:34:18.304Z,100170.66
2022-09-21T02:36:52.004Z,100169.97
2022-09-21T02:39:29.663Z,100169.16
2022-09-21T02:42:05.741Z,100170.97
2022-09-21T02:44:37.919Z,100172.66
2022-09-21T02:47:13.218Z,100180.47
2022-09-21T02:49:47.061Z,100180.41
2022-09-21T02:52:18.363Z,100183.78
2022-09-21T02:54:50.790Z,100185.53
2022-09-21T02:57:23.151Z,100180.28
2022-09-21T02:59:52.640Z,100183.78
2022-09-21T03:02:23.028Z,100186.47
2022-09-21T03:04:51.734Z,100186.34
2022-09-21T03:07:20.620Z,100183.63
2022-09-21T03:09:49.098Z,100190.59
2022-09-21T03:12:17.838Z,100185.34
2022-09-21T03:14:46.386Z,100184.38
2022-09-21T03:17:14.859Z,100187.78
2022-09-21T03:19:44.817Z,100188.69
2022-09-21T03:22:13.687Z,100193.81
2022-09-21T03:24:47.661Z,100196.44
2022-09-21T03:27:17.680Z,100184.22
2022-09-21T03:29:46.934Z,100194.66
2022-09-21T03:32:15.980Z,100196.28
2022-09-21T03:34:46.495Z,100200.56
2022-09-21T03:37:15.081Z,100197.16
2022-09-21T03:39:43.686Z,100197.88
2022-09-21T03:42:12.321Z,100210.97
2022-09-21T03:44:41.692Z,100208.38
2022-09-21T03:47:10.244Z,100209.28
2022-09-21T03:49:38.948Z,100207.53
2022-09-21T03:52:08.697Z,100219.72
2022-09-21T03:54:37.254Z,100217.88
2022-09-21T03:57:05.969Z,100211.69
2022-09-21T03:59:35.707Z,100211.78
2022-09-21T04:02:04.422Z,100215.31
2022-09-21T04:04:32.916Z,100222.28
2022-09-21T04:07:01.989Z,100213.50
2022-09-21T04:09:31.936Z,100217.09
2022-09-21T04:12:00.706Z,100215.25
2022-09-21T04:14:29.362Z,100218.72
2022-09-21T04:16:58.108Z,100219.66
2022-09-21T04:19:27.044Z,100219.66
2022-09-21T04:21:56.381Z,100229.16
2022-09-21T04:24:25.443Z,100228.28
2022-09-21T04:26:55.237Z,100226.66
2022-09-21T04:29:24.136Z,100229.44
2022-09-21T04:31:52.796Z,100228.69
2022-09-21T04:34:21.386Z,100233.16
2022-09-21T04:36:50.378Z,100230.44
2022-09-21T04:39:18.785Z,100232.16
2022-09-21T04:41:47.825Z,100233.81
2022-09-21T04:44:18.875Z,100231.97
2022-09-21T04:46:47.992Z,100236.16
2022-09-21T04:49:17.094Z,100228.97
2022-09-21T04:51:45.693Z,100235.78
2022-09-21T04:54:14.433Z,100239.19
2022-09-21T04:56:43.188Z,100240.91
2022-09-21T04:59:11.876Z,100242.59
2022-09-21T05:01:42.309Z,100240.75
2022-09-21T05:04:11.401Z,100240.75
2022-09-21T05:06:41.651Z,100236.44
2022-09-21T05:09:28.274Z,100249.56
2022-09-21T05:11:56.983Z,100243.59
2022-09-21T05:14:25.737Z,100246.00
2022-09-21T05:16:55.782Z,100246.88
2022-09-21T05:19:24.426Z,100253.81
2022-09-21T05:21:53.327Z,100259.06
2022-09-21T05:24:22.448Z,100256.38
2022-09-21T05:26:51.015Z,100270.34
2022-09-21T05:29:20.008Z,100263.31
2022-09-21T05:31:53.860Z,100267.84
2022-09-21T05:34:39.475Z,100273.94
2022-09-21T05:37:15.429Z,100276.56
2022-09-21T05:39:44.881Z,100284.84
2022-09-21T05:42:14.279Z,100272.44
2022-09-21T05:44:43.472Z,100276.91
2022-09-21T05:47:23.759Z,100277.75
2022-09-21T05:50:03.576Z,100282.16
2022-09-21T05:52:40.927Z,100290.03
2022-09-21T05:55:21.619Z,100287.34
2022-09-21T05:57:58.540Z,100281.25
2022-09-21T06:00:35.322Z,100289.06
2022-09-21T06:03:29.152Z,100289.06
2022-09-21T06:06:00.100Z,100285.50
2022-09-21T06:08:29.123Z,100290.50
2022-09-21T06:10:57.735Z,100286.00
2022-09-21T06:13:26.792Z,100299.88
2022-09-21T06:15:55.433Z,100303.44
2022-09-21T06:18:23.812Z,100302.44
2022-09-21T06:20:52.547Z,100306.97
2022-09-21T06:23:25.613Z,100301.78
2022-09-21T06:25:58.305Z,100306.22
2022-09-21T06:28:28.296Z,100311.47
2022-09-21T06:30:59.161Z,100309.66
2022-09-21T06:33:27.604Z,100309.44
2022-09-21T06:35:58.025Z,100301.53
2022-09-21T06:38:29.640Z,100308.22
2022-09-21T06:41:03.287Z,100312.28
2022-09-21T06:43:32.307Z,100307.84
2022-09-21T06:46:04.285Z,100306.84
2022-09-21T06:48:35.659Z,100315.44
2022-09-21T06:51:06.796Z,100310.91
2022-09-21T06:53:37.229Z,100307.34
2022-09-21T06:56:07.682Z,100314.00
2022-09-21T06:58:37.985Z,100313.34
2022-09-21T07:01:08.856Z,100319.38
2022-09-21T07:03:38.490Z,100317.59
2022-09-21T07:06:08.352Z,100324.75
2022-09-21T07:11:28.178Z,100326.59
2022-09-21T07:13:58.644Z,100329.22
2022-09-21T07:16:28.271Z,100322.94
2022-09-21T07:18:57.045Z,100326.97
2022-09-21T07:21:27.103Z,100324.94
2022-09-21T07:23:57.193Z,100328.16
2022-09-21T07:26:25.963Z,100331.41
2022-09-21T07:28:54.767Z,100327.81
2022-09-21T07:31:23.681Z,100338.19
2022-09-21T07:33:58.299Z,100331.81
2022-09-21T07:36:27.059Z,100341.34
2022-09-21T07:38:57.278Z,100336.84
2022-09-21T07:41:25.898Z,100339.41
2022-09-21T07:43:54.725Z,100338.50
2022-09-21T07:46:23.418Z,100342.97
2022-09-21T07:48:55.534Z,100338.56
2022-09-21T07:51:25.538Z,100337.56
2022-09-21T07:53:58.171Z,100335.63
2022-09-21T07:56:27.317Z,100343.88
2022-09-21T07:59:07.357Z,100339.63
2022-09-21T08:01:37.292Z,100342.50
2022-09-21T08:04:07.235Z,100340.50
2022-09-21T08:06:40.380Z,100346.22
2022-09-21T08:09:11.821Z,100348.72
2022-09-21T08:11:46.427Z,100347.66
2022-09-21T08:14:25.184Z,100357.19
2022-09-21T08:16:55.219Z,100350.16
2022-09-21T08:19:26.066Z,100362.38
2022-09-21T08:21:57.950Z,100361.31
2022-09-21T08:24:27.941Z,100366.34
2022-09-21T08:26:57.161Z,100365.81
2022-09-21T08:29:26.115Z,100352.91
2022-09-21T08:31:55.367Z,100363.69
2022-09-21T08:34:24.787Z,100366.69
2022-09-21T08:36:55.648Z,100365.44
2022-09-21T08:39:24.979Z,100366.22
2022-09-21T08:42:12.262Z,100372.50
2022-09-21T08:44:44.400Z,100376.06
2022-09-21T08:47:18.632Z,100375.19
2022-09-21T08:49:50.977Z,100373.19
2022-09-21T08:52:20.883Z,100375.38
2022-09-21T08:54:56.056Z,100377.78
2022-09-21T08:57:31.035Z,100378.88
2022-09-21T09:00:01.820Z,100377.78
2022-09-21T09:02:47.437Z,100383.13
2022-09-21T09:05:34.933Z,100379.28
2022-09-21T09:08:19.695Z,100375.91
2022-09-21T09:11:00.175Z,100386.91
2022-09-21T09:13:47.964Z,100380.06
2022-09-21T09:16:21.885Z,100386.13
2022-09-21T09:18:54.312Z,100386.97
2022-09-21T09:21:30.292Z,100390.63
2022-09-21T09:24:05.200Z,100385.47
2022-09-21T09:26:42.952Z,100387.41
2022-09-21T09:29:22.355Z,100381.69
2022-09-21T09:31:55.766Z,100379.97
2022-09-21T09:34:30.826Z,100378.81
2022-09-21T09:37:01.928Z,100384.03
2022-09-21T09:39:32.165Z,100374.94
2022-09-21T09:42:25.721Z,100369.72
2022-09-21T09:45:26.229Z,100373.09
2022-09-21T09:48:13.199Z,100380.38
2022-09-21T09:50:44.255Z,100373.63
2022-09-21T09:53:16.145Z,100371.53
2022-09-21T09:55:48.155Z,100373.44
2022-09-21T09:58:20.492Z,100370.72
2022-09-21T10:00:54.744Z,100369.28
2022-09-21T10:03:24.885Z,100375.72
2022-09-21T10:05:54.458Z,100372.13
2022-09-21T10:08:33.071Z,100373.97
2022-09-21T10:11:03.081Z,100373.00
2022-09-21T10:13:34.578Z,100378.97
2022-09-21T10:16:13.084Z,100377.78
2022-09-21T10:18:47.888Z,100374.34
2022-09-21T10:21:22.736Z,100376.03
2022-09-21T10:23:54.197Z,100374.75
2022-09-21T10:26:23.433Z,100370.31
2022-09-21T10:29:03.228Z,100366.44
2022-09-21T10:31:33.649Z,100375.81
2022-09-21T10:34:15.449Z,100375.81
2022-09-21T10:36:51.948Z,100371.44
2022-09-21T10:39:23.305Z,100367.19
2022-09-21T10:42:00.330Z,100366.84
2022-09-21T10:44:37.306Z,100375.81
2022-09-21T10:47:19.941Z,100369.97
2022-09-21T10:49:52.113Z,100368.22
2022-09-21T10:52:24.239Z,100359.31
2022-09-21T10:54:57.523Z,100362.31
2022-09-21T10:57:28.215Z,100365.59
2022-09-21T10:59:58.093Z,100367.16
2022-09-21T11:02:36.688Z,100364.22
2022-09-21T11:05:14.216Z,100362.94
2022-09-21T11:07:49.192Z,100365.78
2022-09-21T11:10:25.670Z,100372.00
2022-09-21T11:13:02.640Z,100365.09
2022-09-21T11:15:43.762Z,100359.72
2022-09-21T11:18:21.421Z,100359.28
2022-09-21T11:20:55.525Z,100363.00
2022-09-21T11:23:47.356Z,100361.91
2022-09-21T11:26:23.722Z,100365.94
2022-09-21T11:28:59.085Z,100364.75
2022-09-21T11:31:42.674Z,100365.59
2022-09-21T11:34:27.214Z,100359.94
2022-09-21T11:37:11.089Z,100360.69
2022-09-21T11:39:55.969Z,100350.50
2022-09-21T11:42:41.038Z,100357.28
2022-09-21T11:45:28.773Z,100360.88
2022-09-21T11:48:12.992Z,100355.53
2022-09-21T11:53:42.372Z,100363.00
2022-09-21T11:56:37.061Z,100351.88
2022-09-21T11:59:23.793Z,100357.78
2022-09-21T12:02:20.126Z,100354.69
2022-09-21T12:04:55.216Z,100355.53
2022-09-21T12:07:46.408Z,100360.16
2022-09-21T12:10:40.320Z,100352.66
2022-09-21T12:13:19.267Z,100351.94
2022-09-21T12:15:58.179Z,100352.94
2022-09-21T12:18:37.291Z,100351.91
2022-09-21T12:21:14.900Z,100340.56
2022-09-21T12:23:47.852Z,100349.50
2022-09-21T12:26:21.384Z,100350.00
2022-09-21T12:28:55.088Z,100350.28
2022-09-21T12:31:31.903Z,100350.19
2022-09-21T12:34:06.452Z,100342.91
2022-09-21T12:36:41.822Z,100342.63
2022-09-21T12:39:20.797Z,100345.50
2022-09-21T12:41:55.840Z,100346.03
2022-09-21T12:44:33.927Z,100344.97
2022-09-21T12:47:10.679Z,100348.88
2022-09-21T12:49:44.082Z,100347.50
2022-09-21T12:52:21.414Z,100358.59
2022-09-21T12:54:58.255Z,100370.72
2022-09-21T12:57:58.646Z,100381.75
2022-09-21T13:00:32.824Z,100368.78
2022-09-21T13:03:12.749Z,100373.53
2022-09-21T13:05:53.433Z,100355.25
2022-09-21T13:08:29.352Z,100356.84
2022-09-21T13:11:05.030Z,100353.53
2022-09-21T13:13:36.436Z,100350.28
2022-09-21T13:16:08.253Z,100333.81
2022-09-21T13:18:40.080Z,100345.91
2022-09-21T13:21:20.162Z,100337.50
2022-09-21T13:23:56.651Z,100349.28
2022-09-21T13:26:37.178Z,100345.75
2022-09-21T13:29:29.808Z,100343.84
2022-09-21T13:32:01.101Z,100346.53
2022-09-21T13:34:37.165Z,100345.94
2022-09-21T13:37:34.759Z,100336.91
2022-09-21T13:40:35.156Z,100341.06
2022-09-21T13:43:25.691Z,100344.38
2022-09-21T13:45:59.865Z,100337.97
2022-09-21T13:48:34.138Z,100333.47
2022-09-21T13:51:10.259Z,100339.00
2022-09-21T13:53:42.539Z,100335.78
2022-09-21T13:56:21.080Z,100334.16
2022-09-21T13:58:55.176Z,100337.19
2022-09-21T14:04:24.839Z,100332.38
2022-09-21T14:06:55.255Z,100329.63
2022-09-21T14:09:28.870Z,100331.03
2022-09-21T14:12:02.084Z,100334.13
2022-09-21T14:14:37.611Z,100333.88
2022-09-21T14:17:08.008Z,100344.88
2022-09-21T14:20:07.424Z,100342.88
2022-09-21T14:22:39.761Z,100349.25
2022-09-21T14:25:29.351Z,100336.97
2022-09-21T14:28:05.429Z,100332.63
2022-09-21T14:30:37.266Z,100341.34
2022-09-21T14:33:19.638Z,100333.91
2022-09-21T14:35:49.458Z,100340.81
2022-09-21T14:38:23.524Z,100339.09
2022-09-21T14:40:54.050Z,100345.16
2022-09-21T14:43:27.607Z,100345.22
2022-09-21T14:46:22.827Z,100346.19
2022-09-21T14:49:06.772Z,100347.28
2022-09-21T14:51:44.365Z,100340.22
2022-09-21T14:54:32.650Z,100345.00
2022-09-21T14:57:17.837Z,100345.41
2022-09-21T15:00:07.192Z,100343.78
2022-09-21T15:02:38.330Z,100347.44
2022-09-21T15:05:21.154Z,100348.78
2022-09-21T15:08:16.403Z,100344.69
2022-09-21T15:10:58.591Z,100344.28
2022-09-21T15:13:46.826Z,100342.03
2022-09-21T15:16:23.677Z,100347.41
2022-09-21T15:19:07.897Z,100344.88
2022-09-21T15:21:38.322Z,100348.34
2022-09-21T15:24:19.976Z,100349.44
2022-09-21T15:26:51.853Z,100354.22
2022-09-21T15:29:24.780Z,100359.97
2022-09-21T15:31:53.863Z,100360.13
2022-09-21T15:34:25.741Z,100365.88
2022-09-21T15:36:55.216Z,100364.59
2022-09-21T15:39:28.908Z,100365.22
2022-09-21T15:42:23.351Z,100360.50
2022-09-21T15:45:06.122Z,100361.84
2022-09-21T15:47:35.451Z,100369.97
2022-09-21T15:50:06.081Z,100372.91
2022-09-21T15:52:42.882Z,100363.59
2022-09-21T15:55:18.295Z,100376.13
2022-09-21T15:57:48.021Z,100374.31
2022-09-21T16:00:23.769Z,100374.59
2022-09-21T16:03:05.586Z,100379.31
2022-09-21T16:05:44.223Z,100374.41
2022-09-21T16:08:27.839Z,100377.47
2022-09-21T16:11:15.461Z,100378.72
2022-09-21T16:14:17.892Z,100377.09
2022-09-21T16:17:09.321Z,100382.81
2022-09-21T16:19:43.107Z,100391.84
2022-09-21T16:22:16.143Z,100383.25
2022-09-21T16:24:53.995Z,100387.50
2022-09-21T16:27:27.201Z,100389.28
2022-09-21T16:29:57.306Z,100390.06
2022-09-21T16:32:32.828Z,100384.88
2022-09-21T16:35:27.182Z,100389.38
2022-09-21T16:37:59.093Z,100392.91
2022-09-21T16:40:27.732Z,100392.91
2022-09-21T16:42:58.111Z,100389.38
2022-09-21T16:45:31.919Z,100393.78
2022-09-21T16:48:02.796Z,100397.28
2022-09-21T16:50:31.527Z,100408.69
2022-09-21T16:53:01.822Z,100407.94
2022-09-21T16:55:30.329Z,100411.50
2022-09-21T16:58:00.809Z,100413.25
2022-09-21T17:00:32.691Z,100410.69
2022-09-21T17:03:02.546Z,100418.81
2022-09-21T17:05:31.121Z,100424.13
2022-09-21T17:08:01.707Z,100418.19
2022-09-21T17:10:35.234Z,100425.22
2022-09-21T17:13:04.662Z,100428.91
2022-09-21T17:15:36.009Z,100417.66
2022-09-21T17:18:05.926Z,100423.00
2022-09-21T17:20:37.958Z,100423.13
2022-09-21T17:23:08.639Z,100425.06
2022-09-21T17:25:38.663Z,100432.25
2022-09-21T17:28:15.767Z,100428.03
2022-09-21T17:30:46.992Z,100429.91
2022-09-21T17:33:17.927Z,100436.22
2022-09-21T17:35:46.700Z,100437.28
2022-09-21T17:38:16.748Z,100431.31
2022-09-21T17:40:46.891Z,100439.25
2022-09-21T17:43:33.860Z,100438.44
2022-09-21T17:46:09.130Z,100435.13
2022-09-21T17:48:40.830Z,100439.50
2022-09-21T17:51:10.647Z,100443.06
2022-09-21T17:53:41.832Z,100443.94
2022-09-21T17:56:30.382Z,100446.63
2022-09-21T17:59:03.544Z,100453.72
2022-09-21T18:01:35.141Z,100461.69
2022-09-21T18:04:05.067Z,100458.41
2022-09-21T18:06:35.100Z,100456.81
2022-09-21T18:09:06.253Z,100456.81
2022-09-21T18:12:01.912Z,100457.66
2022-09-21T18:14:41.709Z,100456.66
2022-09-21T18:17:33.651Z,100456.59
2022-09-21T18:20:09.025Z,100456.66
2022-09-21T18:22:49.076Z,100456.75
2022-09-21T18:25:27.674Z,100455.84
2022-09-21T18:27:59.108Z,100462.78
2022-09-21T18:30:28.011Z,100459.31
2022-09-21T18:33:10.834Z,100455.78
2022-09-21T18:35:57.372Z,100463.56
2022-09-21T18:38:32.606Z,100464.50
2022-09-21T18:41:17.957Z,100461.81
2022-09-21T18:44:05.681Z,100459.22
2022-09-21T18:46:47.556Z,100464.66
2022-09-21T18:49:24.059Z,100457.81
2022-09-21T18:51:58.874Z,100457.00
2022-09-21T18:54:28.927Z,100459.78
2022-09-21T18:57:01.142Z,100453.84
2022-09-21T18:59:32.110Z,100457.47
2022-09-21T19:02:01.748Z,100451.53
2022-09-21T19:04:30.816Z,100462.97
2022-09-21T19:07:04.518Z,100455.28
2022-09-21T19:09:41.986Z,100446.75
2022-09-21T19:12:28.972Z,100455.47
2022-09-21T19:15:12.542Z,100460.00
2022-09-21T19:17:58.091Z,100460.94
2022-09-21T19:20:51.625Z,100459.13
2022-09-21T19:23:32.506Z,100456.66
2022-09-21T19:26:08.349Z,100465.44
2022-09-21T19:28:54.842Z,100459.53
2022-09-21T19:31:24.038Z,100460.50
2022-09-21T19:33:53.011Z,100461.53
2022-09-21T19:36:24.295Z,100456.56
2022-09-21T19:38:54.057Z,100460.22
2022-09-21T19:41:38.431Z,100453.31
2022-09-21T19:44:32.804Z,100451.69
2022-09-21T19:47:10.393Z,100457.97
2022-09-21T19:49:47.403Z,100453.91
2022-09-21T19:52:18.649Z,100451.34
2022-09-21T19:55:05.564Z,100456.66
2022-09-21T19:57:52.985Z,100455.19
2022-09-21T20:00:24.338Z,100458.91
2022-09-21T20:03:01.299Z,100456.28
2022-09-21T20:05:39.113Z,100458.09
2022-09-21T20:08:14.534Z,100455.56
2022-09-21T20:10:58.117Z,100458.31
2022-09-21T20:13:40.898Z,100457.38
2022-09-21T20:16:27.227Z,100458.31
2022-09-21T20:19:01.708Z,100464.47
2022-09-21T20:21:45.089Z,100457.53
2022-09-21T20:24:20.943Z,100458.41
2022-09-21T20:26:52.083Z,100461.09
2022-09-21T20:29:23.102Z,100461.09
2022-09-21T20:31:55.440Z,100456.59
2022-09-21T20:34:24.186Z,100460.00
2022-09-21T20:36:53.175Z,100458.31
2022-09-21T20:39:22.446Z,100456.59
2022-09-21T20:41:52.781Z,100458.31
2022-09-21T20:44:22.184Z,100458.31
2022-09-21T20:46:53.026Z,100461.78
2022-09-21T20:49:22.493Z,100457.38
2022-09-21T20:51:51.596Z,100454.75
2022-09-21T20:54:21.121Z,100450.16
2022-09-21T20:56:50.671Z,100452.78
2022-09-21T20:59:19.225Z,100460.66
2022-09-21T21:01:48.236Z,100450.13
2022-09-21T21:04:20.009Z,100456.22
2022-09-21T21:06:49.342Z,100454.66
2022-09-21T21:09:18.669Z,100453.78
2022-09-21T21:11:48.191Z,100447.69
2022-09-21T21:14:17.237Z,100448.66
2022-09-21T21:16:46.358Z,100446.09
2022-09-21T21:19:15.963Z,100441.84
2022-09-21T21:21:46.473Z,100446.16
2022-09-21T21:24:33.030Z,100442.66
2022-09-21T21:27:03.153Z,100448.06
2022-09-21T21:29:32.817Z,100444.75
2022-09-21T21:32:04.095Z,100449.25
2022-09-21T21:34:33.773Z,100438.13
2022-09-21T21:37:03.678Z,100445.34
2022-09-21T21:39:32.828Z,100450.88
2022-09-21T21:42:01.535Z,100451.97
2022-09-21T21:44:30.118Z,100453.03
2022-09-21T21:47:10.363Z,100447.97
2022-09-21T21:49:44.154Z,100444.69
2022-09-21T21:52:14.197Z,100444.69
2022-09-21T21:54:43.261Z,100446.38
2022-09-21T21:57:12.622Z,100444.59
2022-09-21T21:59:42.678Z,100445.41
2022-09-21T22:02:11.611Z,100443.59
2022-09-21T22:04:40.148Z,100443.56
2022-09-21T22:07:08.769Z,100440.94
2022-09-21T22:09:38.846Z,100438.31
2022-09-21T22:12:07.998Z,100439.19
2022-09-21T22:14:36.967Z,100435.78
2022-09-21T22:17:07.120Z,100437.50
2022-09-21T22:19:36.007Z,100439.28
2022-09-21T22:22:04.866Z,100440.97
2022-09-21T22:24:34.218Z,100441.81
2022-09-21T22:27:04.520Z,100433.13
2022-09-21T22:29:33.209Z,100438.31
2022-09-21T22:32:02.295Z,100433.91
2022-09-21T22:34:31.600Z,100438.31
2022-09-21T22:37:01.119Z,100433.00
2022-09-21T22:39:31.298Z,100429.53
2022-09-21T22:42:00.447Z,100434.81
2022-09-21T22:44:30.787Z,100438.31
2022-09-21T22:47:00.303Z,100434.03
2022-09-21T22:49:30.163Z,100431.47
2022-09-21T22:51:59.236Z,100444.53
2022-09-21T22:54:28.775Z,100432.38
2022-09-21T22:56:57.846Z,100439.34
2022-09-21T22:59:26.700Z,100433.38
2022-09-21T23:15:28.788Z,100435.69
2022-09-21T23:17:57.558Z,100435.69
2022-09-21T23:20:26.300Z,100437.41
2022-09-21T23:22:55.310Z,100440.78
2022-09-21T23:25:24.174Z,100434.72
2022-09-21T23:27:53.213Z,100432.16
2022-09-21T23:30:21.952Z,100433.94
2022-09-21T23:32:53.925Z,100433.84
2022-09-21T23:35:22.567Z,100431.16
2022-09-21T23:37:51.005Z,100431.13
2022-09-21T23:40:19.821Z,100430.19
2022-09-21T23:42:49.097Z,100434.56
2022-09-21T23:45:17.907Z,100429.34
2022-09-21T23:47:46.434Z,100437.16
2022-09-21T23:50:16.731Z,100432.72
2022-09-21T23:52:45.204Z,100430.81
2022-09-21T23:55:14.017Z,100426.31
2022-09-21T23:57:42.664Z,100431.53
